sensor_id;sensor_type;location;lat;lon;timestamp;temperature;humidity
15257;DHT22;7731;50.720;6.912;2024-02-14T00:00:28;9.20;1.00
15257;DHT22;7731;50.720;6.912;2024-02-14T00:02:59;9.30;1.00
15257;DHT22;7731;50.720;6.912;2024-02-14T00:05:29;9.30;1.00
15257;DHT22;7731;50.720;6.912;2024-02-14T00:08:03;9.20;1.00
15257;DHT22;7731;50.720;6.912;2024-02-14T00:10:48;9.30;1.00
15257;DHT22;7731;50.720;6.912;2024-02-14T00:13:26;9.20;1.00
15257;DHT22;7731;50.720;6.912;2024-02-14T00:15:56;9.30;1.00
15257;DHT22;7731;50.720;6.912;2024-02-14T00:18:30;9.20;1.00
15257;DHT22;7731;50.720;6.912;2024-02-14T00:21:03;9.10;99.90
15257;DHT22;7731;50.720;6.912;2024-02-14T00:23:37;9.10;99.90
15257;DHT22;7731;50.720;6.912;2024-02-14T00:26:07;9.10;99.90
15257;DHT22;7731;50.720;6.912;2024-02-14T00:28:40;9.20;99.90
15257;DHT22;7731;50.720;6.912;2024-02-14T00:31:13;9.20;99.90
15257;DHT22;7731;50.720;6.912;2024-02-14T00:33:44;9.20;99.90
15257;DHT22;7731;50.720;6.912;2024-02-14T00:36:14;9.20;1.00
15257;DHT22;7731;50.720;6.912;2024-02-14T00:38:50;9.20;99.90
15257;DHT22;7731;50.720;6.912;2024-02-14T00:41:21;9.10;1.00
15257;DHT22;7731;50.720;6.912;2024-02-14T00:44:01;9.10;1.00
15257;DHT22;7731;50.720;6.912;2024-02-14T00:46:32;9.10;89.10
15257;DHT22;7731;50.720;6.912;2024-02-14T00:49:05;9.10;99.90
15257;DHT22;7731;50.720;6.912;2024-02-14T00:51:35;9.10;99.90
15257;DHT22;7731;50.720;6.912;2024-02-14T00:54:09;9.20;99.90
15257;DHT22;7731;50.720;6.912;2024-02-14T00:56:42;9.20;99.90
15257;DHT22;7731;50.720;6.912;2024-02-14T00:59:15;9.20;1.00
15257;DHT22;7731;50.720;6.912;2024-02-14T01:01:45;9.20;1.00
15257;DHT22;7731;50.720;6.912;2024-02-14T01:04:16;9.20;1.00
15257;DHT22;7731;50.720;6.912;2024-02-14T01:06:47;9.10;99.90
15257;DHT22;7731;50.720;6.912;2024-02-14T01:09:21;9.20;1.00
15257;DHT22;7731;50.720;6.912;2024-02-14T01:12:02;9.20;99.90
15257;DHT22;7731;50.720;6.912;2024-02-14T01:14:36;9.20;99.90
15257;DHT22;7731;50.720;6.912;2024-02-14T01:17:12;9.20;90.60
15257;DHT22;7731;50.720;6.912;2024-02-14T01:19:43;9.20;1.00
15257;DHT22;7731;50.720;6.912;2024-02-14T01:22:22;9.10;1.00
15257;DHT22;7731;50.720;6.912;2024-02-14T01:24:55;9.10;99.90
15257;DHT22;7731;50.720;6.912;2024-02-14T01:27:26;9.10;1.00
15257;DHT22;7731;50.720;6.912;2024-02-14T01:30:01;9.10;99.90
15257;DHT22;7731;50.720;6.912;2024-02-14T01:32:32;8.90;1.00
15257;DHT22;7731;50.720;6.912;2024-02-14T01:35:06;8.80;99.90
15257;DHT22;7731;50.720;6.912;2024-02-14T01:37:37;8.80;99.90
15257;DHT22;7731;50.720;6.912;2024-02-14T01:40:15;8.70;1.00
15257;DHT22;7731;50.720;6.912;2024-02-14T01:42:59;8.70;99.90
15257;DHT22;7731;50.720;6.912;2024-02-14T01:45:29;8.70;1.00
15257;DHT22;7731;50.720;6.912;2024-02-14T01:48:04;8.60;1.00
15257;DHT22;7731;50.720;6.912;2024-02-14T01:50:36;8.60;1.00
15257;DHT22;7731;50.720;6.912;2024-02-14T01:53:11;8.60;1.00
15257;DHT22;7731;50.720;6.912;2024-02-14T01:55:42;8.60;63.60
15257;DHT22;7731;50.720;6.912;2024-02-14T01:58:16;8.60;78.40
15257;DHT22;7731;50.720;6.912;2024-02-14T02:00:46;8.70;78.60
15257;DHT22;7731;50.720;6.912;2024-02-14T02:03:17;8.70;65.50
15257;DHT22;7731;50.720;6.912;2024-02-14T02:05:50;8.80;70.20
15257;DHT22;7731;50.720;6.912;2024-02-14T02:08:23;8.80;1.20
15257;DHT22;7731;50.720;6.912;2024-02-14T02:10:56;8.90;1.00
15257;DHT22;7731;50.720;6.912;2024-02-14T02:13:29;8.90;1.00
15257;DHT22;7731;50.720;6.912;2024-02-14T02:16:02;8.90;1.00
15257;DHT22;7731;50.720;6.912;2024-02-14T02:18:35;8.90;9.80
15257;DHT22;7731;50.720;6.912;2024-02-14T02:21:07;8.90;11.10
15257;DHT22;7731;50.720;6.912;2024-02-14T02:23:56;8.90;2.10
15257;DHT22;7731;50.720;6.912;2024-02-14T02:26:26;9.00;12.10
15257;DHT22;7731;50.720;6.912;2024-02-14T02:28:57;9.00;24.90
15257;DHT22;7731;50.720;6.912;2024-02-14T02:31:27;9.00;2.20
15257;DHT22;7731;50.720;6.912;2024-02-14T02:34:03;9.00;1.00
15257;DHT22;7731;50.720;6.912;2024-02-14T02:36:40;9.00;30.90
15257;DHT22;7731;50.720;6.912;2024-02-14T02:39:15;9.10;26.00
15257;DHT22;7731;50.720;6.912;2024-02-14T02:41:45;9.00;71.70
15257;DHT22;7731;50.720;6.912;2024-02-14T02:44:20;9.00;99.90
15257;DHT22;7731;50.720;6.912;2024-02-14T02:46:53;9.00;99.90
15257;DHT22;7731;50.720;6.912;2024-02-14T02:49:23;8.90;99.90
15257;DHT22;7731;50.720;6.912;2024-02-14T02:51:54;9.00;99.90
15257;DHT22;7731;50.720;6.912;2024-02-14T02:54:27;9.00;99.90
15257;DHT22;7731;50.720;6.912;2024-02-14T02:56:57;9.00;99.90
15257;DHT22;7731;50.720;6.912;2024-02-14T02:59:30;9.00;99.90
15257;DHT22;7731;50.720;6.912;2024-02-14T03:02:12;9.10;99.90
15257;DHT22;7731;50.720;6.912;2024-02-14T03:05:02;9.10;99.90
15257;DHT22;7731;50.720;6.912;2024-02-14T03:07:38;9.20;99.90
15257;DHT22;7731;50.720;6.912;2024-02-14T03:10:17;9.20;99.90
15257;DHT22;7731;50.720;6.912;2024-02-14T03:12:48;9.20;99.90
15257;DHT22;7731;50.720;6.912;2024-02-14T03:15:19;9.10;99.90
15257;DHT22;7731;50.720;6.912;2024-02-14T03:17:53;9.10;99.90
15257;DHT22;7731;50.720;6.912;2024-02-14T03:20:28;9.10;99.90
15257;DHT22;7731;50.720;6.912;2024-02-14T03:23:01;9.10;99.90
15257;DHT22;7731;50.720;6.912;2024-02-14T03:25:34;9.10;99.90
15257;DHT22;7731;50.720;6.912;2024-02-14T03:28:07;9.10;99.90
15257;DHT22;7731;50.720;6.912;2024-02-14T03:30:48;9.20;99.90
15257;DHT22;7731;50.720;6.912;2024-02-14T03:33:19;9.20;99.90
15257;DHT22;7731;50.720;6.912;2024-02-14T03:35:50;9.30;99.90
15257;DHT22;7731;50.720;6.912;2024-02-14T03:38:25;9.30;99.90
15257;DHT22;7731;50.720;6.912;2024-02-14T03:40:59;9.30;99.90
15257;DHT22;7731;50.720;6.912;2024-02-14T03:43:29;9.30;99.90
15257;DHT22;7731;50.720;6.912;2024-02-14T03:46:02;9.20;99.90
15257;DHT22;7731;50.720;6.912;2024-02-14T03:48:36;9.20;99.90
15257;DHT22;7731;50.720;6.912;2024-02-14T03:51:07;9.20;99.90
15257;DHT22;7731;50.720;6.912;2024-02-14T03:53:39;9.20;99.90
15257;DHT22;7731;50.720;6.912;2024-02-14T03:56:18;9.20;99.90
15257;DHT22;7731;50.720;6.912;2024-02-14T03:58:51;9.10;99.90
15257;DHT22;7731;50.720;6.912;2024-02-14T04:01:21;9.10;99.90
15257;DHT22;7731;50.720;6.912;2024-02-14T04:03:52;9.00;99.90
15257;DHT22;7731;50.720;6.912;2024-02-14T04:06:22;9.00;99.90
15257;DHT22;7731;50.720;6.912;2024-02-14T04:08:54;9.00;99.90
15257;DHT22;7731;50.720;6.912;2024-02-14T04:11:33;9.00;99.90
15257;DHT22;7731;50.720;6.912;2024-02-14T04:14:03;9.00;99.90
15257;DHT22;7731;50.720;6.912;2024-02-14T04:16:33;8.90;99.90
15257;DHT22;7731;50.720;6.912;2024-02-14T04:19:04;9.00;99.90
15257;DHT22;7731;50.720;6.912;2024-02-14T04:21:36;9.00;99.90
15257;DHT22;7731;50.720;6.912;2024-02-14T04:24:07;9.00;99.90
15257;DHT22;7731;50.720;6.912;2024-02-14T04:26:39;9.00;99.90
15257;DHT22;7731;50.720;6.912;2024-02-14T04:29:12;9.10;99.90
15257;DHT22;7731;50.720;6.912;2024-02-14T04:31:45;9.20;99.90
15257;DHT22;7731;50.720;6.912;2024-02-14T04:34:16;9.20;99.90
15257;DHT22;7731;50.720;6.912;2024-02-14T04:36:47;9.20;99.90
15257;DHT22;7731;50.720;6.912;2024-02-14T04:39:17;9.20;99.90
15257;DHT22;7731;50.720;6.912;2024-02-14T04:41:50;9.20;99.90
15257;DHT22;7731;50.720;6.912;2024-02-14T04:44:28;9.20;99.90
15257;DHT22;7731;50.720;6.912;2024-02-14T04:46:59;9.20;99.90
15257;DHT22;7731;50.720;6.912;2024-02-14T04:49:32;9.20;99.90
15257;DHT22;7731;50.720;6.912;2024-02-14T04:52:03;9.30;99.90
15257;DHT22;7731;50.720;6.912;2024-02-14T04:54:42;9.30;99.90
15257;DHT22;7731;50.720;6.912;2024-02-14T04:57:17;9.20;99.90
15257;DHT22;7731;50.720;6.912;2024-02-14T04:59:48;9.20;99.90
15257;DHT22;7731;50.720;6.912;2024-02-14T05:02:28;9.20;99.90
15257;DHT22;7731;50.720;6.912;2024-02-14T05:05:01;9.30;99.90
15257;DHT22;7731;50.720;6.912;2024-02-14T05:07:31;9.20;99.90
15257;DHT22;7731;50.720;6.912;2024-02-14T05:10:10;9.20;99.90
15257;DHT22;7731;50.720;6.912;2024-02-14T05:12:42;9.20;99.90
15257;DHT22;7731;50.720;6.912;2024-02-14T05:15:16;9.20;99.90
15257;DHT22;7731;50.720;6.912;2024-02-14T05:17:48;9.30;99.90
15257;DHT22;7731;50.720;6.912;2024-02-14T05:20:23;9.30;99.90
15257;DHT22;7731;50.720;6.912;2024-02-14T05:22:54;9.30;99.90
15257;DHT22;7731;50.720;6.912;2024-02-14T05:25:26;9.30;99.90
15257;DHT22;7731;50.720;6.912;2024-02-14T05:28:02;9.30;99.90
15257;DHT22;7731;50.720;6.912;2024-02-14T05:30:40;9.30;99.90
15257;DHT22;7731;50.720;6.912;2024-02-14T05:33:11;9.30;99.90
15257;DHT22;7731;50.720;6.912;2024-02-14T05:35:42;9.20;99.90
15257;DHT22;7731;50.720;6.912;2024-02-14T05:38:14;9.30;99.90
15257;DHT22;7731;50.720;6.912;2024-02-14T05:40:46;9.30;99.90
15257;DHT22;7731;50.720;6.912;2024-02-14T05:43:19;9.30;99.90
15257;DHT22;7731;50.720;6.912;2024-02-14T05:45:49;9.30;99.90
15257;DHT22;7731;50.720;6.912;2024-02-14T05:48:22;9.40;99.90
15257;DHT22;7731;50.720;6.912;2024-02-14T05:50:54;9.40;99.90
15257;DHT22;7731;50.720;6.912;2024-02-14T05:53:24;9.50;99.90
15257;DHT22;7731;50.720;6.912;2024-02-14T05:55:58;9.40;99.90
15257;DHT22;7731;50.720;6.912;2024-02-14T05:58:30;9.40;99.90
15257;DHT22;7731;50.720;6.912;2024-02-14T06:01:01;9.40;99.90
15257;DHT22;7731;50.720;6.912;2024-02-14T06:03:31;9.40;99.90
15257;DHT22;7731;50.720;6.912;2024-02-14T06:06:02;9.40;99.90
15257;DHT22;7731;50.720;6.912;2024-02-14T06:08:38;9.30;99.90
15257;DHT22;7731;50.720;6.912;2024-02-14T06:11:09;9.20;99.90
15257;DHT22;7731;50.720;6.912;2024-02-14T06:13:45;9.20;99.90
15257;DHT22;7731;50.720;6.912;2024-02-14T06:16:16;9.20;99.90
15257;DHT22;7731;50.720;6.912;2024-02-14T06:18:46;9.20;99.90
15257;DHT22;7731;50.720;6.912;2024-02-14T06:21:17;9.10;99.90
15257;DHT22;7731;50.720;6.912;2024-02-14T06:23:47;9.10;99.90
15257;DHT22;7731;50.720;6.912;2024-02-14T06:26:21;9.10;99.90
15257;DHT22;7731;50.720;6.912;2024-02-14T06:28:57;9.20;99.90
15257;DHT22;7731;50.720;6.912;2024-02-14T06:31:27;9.10;99.90
15257;DHT22;7731;50.720;6.912;2024-02-14T06:34:00;9.10;99.90
15257;DHT22;7731;50.720;6.912;2024-02-14T06:36:34;9.10;99.90
15257;DHT22;7731;50.720;6.912;2024-02-14T06:39:08;9.10;99.90
15257;DHT22;7731;50.720;6.912;2024-02-14T06:41:38;9.10;99.90
15257;DHT22;7731;50.720;6.912;2024-02-14T06:44:13;9.10;99.90
15257;DHT22;7731;50.720;6.912;2024-02-14T06:46:45;9.20;99.90
15257;DHT22;7731;50.720;6.912;2024-02-14T06:49:16;9.20;99.90
15257;DHT22;7731;50.720;6.912;2024-02-14T06:51:46;9.20;99.90
15257;DHT22;7731;50.720;6.912;2024-02-14T06:54:16;9.30;99.90
15257;DHT22;7731;50.720;6.912;2024-02-14T06:56:49;9.30;99.90
15257;DHT22;7731;50.720;6.912;2024-02-14T06:59:22;9.40;99.90
15257;DHT22;7731;50.720;6.912;2024-02-14T07:01:53;9.40;99.90
15257;DHT22;7731;50.720;6.912;2024-02-14T07:04:39;9.50;99.90
15257;DHT22;7731;50.720;6.912;2024-02-14T07:07:12;9.60;99.90
15257;DHT22;7731;50.720;6.912;2024-02-14T07:09:43;9.60;99.90
15257;DHT22;7731;50.720;6.912;2024-02-14T07:12:13;9.60;99.90
15257;DHT22;7731;50.720;6.912;2024-02-14T07:14:58;9.60;99.90
15257;DHT22;7731;50.720;6.912;2024-02-14T07:17:41;9.70;99.90
15257;DHT22;7731;50.720;6.912;2024-02-14T07:20:12;9.70;99.90
15257;DHT22;7731;50.720;6.912;2024-02-14T07:22:47;9.70;99.90
15257;DHT22;7731;50.720;6.912;2024-02-14T07:25:20;9.80;99.90
15257;DHT22;7731;50.720;6.912;2024-02-14T07:27:53;9.80;99.90
15257;DHT22;7731;50.720;6.912;2024-02-14T07:30:28;9.80;99.90
15257;DHT22;7731;50.720;6.912;2024-02-14T07:32:58;9.90;99.90
15257;DHT22;7731;50.720;6.912;2024-02-14T07:35:29;9.90;99.90
15257;DHT22;7731;50.720;6.912;2024-02-14T07:38:01;9.90;99.90
15257;DHT22;7731;50.720;6.912;2024-02-14T07:40:32;10.00;99.90
15257;DHT22;7731;50.720;6.912;2024-02-14T07:43:09;10.00;17.10
15257;DHT22;7731;50.720;6.912;2024-02-14T07:45:44;10.20;1.00
15257;DHT22;7731;50.720;6.912;2024-02-14T07:48:20;10.30;1.00
15257;DHT22;7731;50.720;6.912;2024-02-14T07:51:07;10.40;1.00
15257;DHT22;7731;50.720;6.912;2024-02-14T07:53:37;10.40;1.00
15257;DHT22;7731;50.720;6.912;2024-02-14T07:56:17;10.50;99.90
15257;DHT22;7731;50.720;6.912;2024-02-14T07:58:47;10.60;99.90
15257;DHT22;7731;50.720;6.912;2024-02-14T08:01:23;10.60;99.90
15257;DHT22;7731;50.720;6.912;2024-02-14T08:03:59;10.50;99.90
15257;DHT22;7731;50.720;6.912;2024-02-14T08:06:29;10.40;1.00
15257;DHT22;7731;50.720;6.912;2024-02-14T08:09:01;10.30;1.00
15257;DHT22;7731;50.720;6.912;2024-02-14T08:11:34;10.30;1.00
15257;DHT22;7731;50.720;6.912;2024-02-14T08:14:07;10.30;1.00
15257;DHT22;7731;50.720;6.912;2024-02-14T08:16:43;10.40;1.00
15257;DHT22;7731;50.720;6.912;2024-02-14T08:19:14;10.60;1.00
15257;DHT22;7731;50.720;6.912;2024-02-14T08:21:45;10.70;99.90
15257;DHT22;7731;50.720;6.912;2024-02-14T08:24:16;10.80;99.90
15257;DHT22;7731;50.720;6.912;2024-02-14T08:26:46;11.10;1.00
15257;DHT22;7731;50.720;6.912;2024-02-14T08:29:17;11.30;99.90
15257;DHT22;7731;50.720;6.912;2024-02-14T08:31:50;11.50;1.00
15257;DHT22;7731;50.720;6.912;2024-02-14T08:34:20;11.60;1.00
15257;DHT22;7731;50.720;6.912;2024-02-14T08:36:51;11.60;99.90
15257;DHT22;7731;50.720;6.912;2024-02-14T08:39:21;11.80;1.00
15257;DHT22;7731;50.720;6.912;2024-02-14T08:41:56;12.00;1.00
15257;DHT22;7731;50.720;6.912;2024-02-14T08:44:31;12.10;99.90
15257;DHT22;7731;50.720;6.912;2024-02-14T08:47:06;12.10;99.90
15257;DHT22;7731;50.720;6.912;2024-02-14T08:49:40;12.00;1.00
15257;DHT22;7731;50.720;6.912;2024-02-14T08:52:14;11.90;1.00
15257;DHT22;7731;50.720;6.912;2024-02-14T08:54:48;12.00;1.00
15257;DHT22;7731;50.720;6.912;2024-02-14T08:57:19;12.00;1.00
15257;DHT22;7731;50.720;6.912;2024-02-14T08:59:50;12.10;1.00
15257;DHT22;7731;50.720;6.912;2024-02-14T09:02:26;12.20;99.90
15257;DHT22;7731;50.720;6.912;2024-02-14T09:05:04;12.50;1.00
15257;DHT22;7731;50.720;6.912;2024-02-14T09:07:36;12.90;99.90
15257;DHT22;7731;50.720;6.912;2024-02-14T09:10:09;13.10;1.00
15257;DHT22;7731;50.720;6.912;2024-02-14T09:12:40;13.00;1.00
15257;DHT22;7731;50.720;6.912;2024-02-14T09:15:11;12.80;1.00
15257;DHT22;7731;50.720;6.912;2024-02-14T09:17:44;12.50;99.90
15257;DHT22;7731;50.720;6.912;2024-02-14T09:20:15;12.40;99.90
15257;DHT22;7731;50.720;6.912;2024-02-14T09:22:47;12.40;99.90
15257;DHT22;7731;50.720;6.912;2024-02-14T09:25:17;12.60;99.90
15257;DHT22;7731;50.720;6.912;2024-02-14T09:27:50;12.70;99.90
15257;DHT22;7731;50.720;6.912;2024-02-14T09:30:22;13.10;1.00
15257;DHT22;7731;50.720;6.912;2024-02-14T09:33:08;13.50;1.00
15257;DHT22;7731;50.720;6.912;2024-02-14T09:36:01;13.70;99.90
15257;DHT22;7731;50.720;6.912;2024-02-14T09:38:31;13.70;99.90
15257;DHT22;7731;50.720;6.912;2024-02-14T09:41:14;13.90;99.90
15257;DHT22;7731;50.720;6.912;2024-02-14T09:43:47;13.80;99.90
15257;DHT22;7731;50.720;6.912;2024-02-14T09:46:18;13.80;99.90
15257;DHT22;7731;50.720;6.912;2024-02-14T09:48:58;14.00;99.90
15257;DHT22;7731;50.720;6.912;2024-02-14T09:51:31;14.20;99.90
15257;DHT22;7731;50.720;6.912;2024-02-14T09:54:11;14.40;99.20
15257;DHT22;7731;50.720;6.912;2024-02-14T09:56:42;14.10;99.90
15257;DHT22;7731;50.720;6.912;2024-02-14T09:59:14;13.80;99.90
15257;DHT22;7731;50.720;6.912;2024-02-14T10:01:48;13.50;99.90
15257;DHT22;7731;50.720;6.912;2024-02-14T10:04:33;13.40;99.90
15257;DHT22;7731;50.720;6.912;2024-02-14T10:07:05;13.20;99.90
15257;DHT22;7731;50.720;6.912;2024-02-14T10:09:40;13.20;1.00
15257;DHT22;7731;50.720;6.912;2024-02-14T10:12:17;13.30;99.90
15257;DHT22;7731;50.720;6.912;2024-02-14T10:14:48;13.30;99.90
15257;DHT22;7731;50.720;6.912;2024-02-14T10:17:20;13.20;99.90
15257;DHT22;7731;50.720;6.912;2024-02-14T10:20:01;13.20;99.90
15257;DHT22;7731;50.720;6.912;2024-02-14T10:22:39;13.30;1.00
15257;DHT22;7731;50.720;6.912;2024-02-14T10:25:11;13.20;1.00
15257;DHT22;7731;50.720;6.912;2024-02-14T10:27:44;12.90;1.00
15257;DHT22;7731;50.720;6.912;2024-02-14T10:30:18;12.90;1.00
15257;DHT22;7731;50.720;6.912;2024-02-14T10:32:49;12.80;1.00
15257;DHT22;7731;50.720;6.912;2024-02-14T10:35:50;12.90;1.00
15257;DHT22;7731;50.720;6.912;2024-02-14T10:38:34;13.00;1.00
15257;DHT22;7731;50.720;6.912;2024-02-14T10:41:05;13.00;1.00
15257;DHT22;7731;50.720;6.912;2024-02-14T10:43:41;13.10;1.00
15257;DHT22;7731;50.720;6.912;2024-02-14T10:46:18;13.20;1.00
15257;DHT22;7731;50.720;6.912;2024-02-14T10:48:56;13.20;1.00
15257;DHT22;7731;50.720;6.912;2024-02-14T10:51:38;13.40;1.00
15257;DHT22;7731;50.720;6.912;2024-02-14T10:54:11;13.40;1.00
15257;DHT22;7731;50.720;6.912;2024-02-14T10:56:48;13.50;1.00
15257;DHT22;7731;50.720;6.912;2024-02-14T10:59:21;13.70;1.00
15257;DHT22;7731;50.720;6.912;2024-02-14T11:01:58;14.00;99.90
15257;DHT22;7731;50.720;6.912;2024-02-14T11:04:36;14.20;99.90
15257;DHT22;7731;50.720;6.912;2024-02-14T11:07:11;14.10;99.90
15257;DHT22;7731;50.720;6.912;2024-02-14T11:09:45;14.00;99.90
15257;DHT22;7731;50.720;6.912;2024-02-14T11:12:23;13.80;99.90
15257;DHT22;7731;50.720;6.912;2024-02-14T11:14:57;13.80;99.90
15257;DHT22;7731;50.720;6.912;2024-02-14T11:17:37;13.90;99.90
15257;DHT22;7731;50.720;6.912;2024-02-14T11:20:19;14.00;99.90
15257;DHT22;7731;50.720;6.912;2024-02-14T11:23:02;14.00;99.90
15257;DHT22;7731;50.720;6.912;2024-02-14T11:25:35;13.80;99.90
15257;DHT22;7731;50.720;6.912;2024-02-14T11:28:13;13.70;99.90
15257;DHT22;7731;50.720;6.912;2024-02-14T11:30:47;13.70;99.90
15257;DHT22;7731;50.720;6.912;2024-02-14T11:33:18;13.70;99.90
15257;DHT22;7731;50.720;6.912;2024-02-14T11:35:53;13.60;99.90
15257;DHT22;7731;50.720;6.912;2024-02-14T11:38:28;13.40;1.00
15257;DHT22;7731;50.720;6.912;2024-02-14T11:40:58;13.30;1.00
15257;DHT22;7731;50.720;6.912;2024-02-14T11:43:31;13.20;1.00
15257;DHT22;7731;50.720;6.912;2024-02-14T11:46:09;13.20;1.00
15257;DHT22;7731;50.720;6.912;2024-02-14T11:48:41;13.10;8.20
15257;DHT22;7731;50.720;6.912;2024-02-14T11:51:17;13.10;1.00
15257;DHT22;7731;50.720;6.912;2024-02-14T11:53:53;13.20;1.00
15257;DHT22;7731;50.720;6.912;2024-02-14T11:56:27;13.20;1.00
15257;DHT22;7731;50.720;6.912;2024-02-14T11:59:01;13.20;1.00
15257;DHT22;7731;50.720;6.912;2024-02-14T12:01:34;13.20;1.00
15257;DHT22;7731;50.720;6.912;2024-02-14T12:04:06;13.20;1.00
15257;DHT22;7731;50.720;6.912;2024-02-14T12:06:45;13.10;99.90
15257;DHT22;7731;50.720;6.912;2024-02-14T12:09:21;13.10;67.00
15257;DHT22;7731;50.720;6.912;2024-02-14T12:11:57;13.10;1.00
15257;DHT22;7731;50.720;6.912;2024-02-14T12:14:32;13.10;99.90
15257;DHT22;7731;50.720;6.912;2024-02-14T12:17:10;13.20;1.00
15257;DHT22;7731;50.720;6.912;2024-02-14T12:19:40;13.30;1.00
15257;DHT22;7731;50.720;6.912;2024-02-14T12:22:15;13.20;1.00
15257;DHT22;7731;50.720;6.912;2024-02-14T12:24:56;13.30;1.00
15257;DHT22;7731;50.720;6.912;2024-02-14T12:27:31;13.30;1.00
15257;DHT22;7731;50.720;6.912;2024-02-14T12:30:05;13.40;1.00
15257;DHT22;7731;50.720;6.912;2024-02-14T12:32:44;13.40;1.00
15257;DHT22;7731;50.720;6.912;2024-02-14T12:35:14;13.40;1.00
15257;DHT22;7731;50.720;6.912;2024-02-14T12:37:46;13.50;1.00
15257;DHT22;7731;50.720;6.912;2024-02-14T12:40:19;13.50;1.00
15257;DHT22;7731;50.720;6.912;2024-02-14T12:42:53;13.40;1.00
15257;DHT22;7731;50.720;6.912;2024-02-14T12:45:25;13.40;99.90
15257;DHT22;7731;50.720;6.912;2024-02-14T12:47:58;13.50;29.10
15257;DHT22;7731;50.720;6.912;2024-02-14T12:50:31;13.60;1.00
15257;DHT22;7731;50.720;6.912;2024-02-14T12:53:05;13.70;1.00
15257;DHT22;7731;50.720;6.912;2024-02-14T12:55:38;13.70;1.00
15257;DHT22;7731;50.720;6.912;2024-02-14T12:58:13;13.60;1.00
15257;DHT22;7731;50.720;6.912;2024-02-14T13:00:44;13.50;99.90
15257;DHT22;7731;50.720;6.912;2024-02-14T13:03:15;13.40;99.90
15257;DHT22;7731;50.720;6.912;2024-02-14T13:05:45;13.40;1.00
15257;DHT22;7731;50.720;6.912;2024-02-14T13:08:28;13.40;1.00
15257;DHT22;7731;50.720;6.912;2024-02-14T13:11:02;13.30;1.00
15257;DHT22;7731;50.720;6.912;2024-02-14T13:13:41;13.30;99.90
15257;DHT22;7731;50.720;6.912;2024-02-14T13:16:14;13.20;99.90
15257;DHT22;7731;50.720;6.912;2024-02-14T13:18:47;13.10;99.90
15257;DHT22;7731;50.720;6.912;2024-02-14T13:21:20;13.10;1.00
15257;DHT22;7731;50.720;6.912;2024-02-14T13:23:50;13.10;1.00
15257;DHT22;7731;50.720;6.912;2024-02-14T13:26:29;13.00;49.00
15257;DHT22;7731;50.720;6.912;2024-02-14T13:29:01;13.00;1.00
15257;DHT22;7731;50.720;6.912;2024-02-14T13:31:31;13.10;99.90
15257;DHT22;7731;50.720;6.912;2024-02-14T13:34:02;13.00;20.50
15257;DHT22;7731;50.720;6.912;2024-02-14T13:36:36;13.00;99.90
15257;DHT22;7731;50.720;6.912;2024-02-14T13:39:08;12.90;1.00
15257;DHT22;7731;50.720;6.912;2024-02-14T13:41:50;12.80;1.00
15257;DHT22;7731;50.720;6.912;2024-02-14T13:44:25;12.70;95.00
15257;DHT22;7731;50.720;6.912;2024-02-14T13:46:58;12.60;99.90
15257;DHT22;7731;50.720;6.912;2024-02-14T13:49:28;12.50;99.90
15257;DHT22;7731;50.720;6.912;2024-02-14T13:51:59;12.50;99.90
15257;DHT22;7731;50.720;6.912;2024-02-14T13:54:29;12.50;99.90
15257;DHT22;7731;50.720;6.912;2024-02-14T13:57:05;12.60;99.90
15257;DHT22;7731;50.720;6.912;2024-02-14T13:59:35;12.60;99.90
15257;DHT22;7731;50.720;6.912;2024-02-14T14:02:09;12.60;99.90
15257;DHT22;7731;50.720;6.912;2024-02-14T14:04:42;12.70;99.90
15257;DHT22;7731;50.720;6.912;2024-02-14T14:07:12;12.70;99.90
15257;DHT22;7731;50.720;6.912;2024-02-14T14:09:42;12.70;99.90
15257;DHT22;7731;50.720;6.912;2024-02-14T14:12:24;12.70;99.90
15257;DHT22;7731;50.720;6.912;2024-02-14T14:14:54;12.70;99.90
15257;DHT22;7731;50.720;6.912;2024-02-14T14:17:24;12.70;99.90
15257;DHT22;7731;50.720;6.912;2024-02-14T14:19:58;12.70;99.90
15257;DHT22;7731;50.720;6.912;2024-02-14T14:22:31;12.70;99.90
15257;DHT22;7731;50.720;6.912;2024-02-14T14:25:07;12.60;99.90
15257;DHT22;7731;50.720;6.912;2024-02-14T14:27:44;12.70;99.90
15257;DHT22;7731;50.720;6.912;2024-02-14T14:30:16;12.70;99.90
15257;DHT22;7731;50.720;6.912;2024-02-14T14:32:49;12.80;99.90
15257;DHT22;7731;50.720;6.912;2024-02-14T14:35:20;12.70;99.90
15257;DHT22;7731;50.720;6.912;2024-02-14T14:37:50;12.70;99.90
15257;DHT22;7731;50.720;6.912;2024-02-14T14:40:21;12.60;99.90
15257;DHT22;7731;50.720;6.912;2024-02-14T14:42:54;12.70;99.90
15257;DHT22;7731;50.720;6.912;2024-02-14T14:45:26;12.70;99.90
15257;DHT22;7731;50.720;6.912;2024-02-14T14:48:09;12.70;99.90
15257;DHT22;7731;50.720;6.912;2024-02-14T14:50:39;12.60;99.90
15257;DHT22;7731;50.720;6.912;2024-02-14T14:53:10;12.70;99.90
15257;DHT22;7731;50.720;6.912;2024-02-14T14:55:50;12.70;99.90
15257;DHT22;7731;50.720;6.912;2024-02-14T14:58:25;12.70;99.90
15257;DHT22;7731;50.720;6.912;2024-02-14T15:01:01;12.60;99.90
15257;DHT22;7731;50.720;6.912;2024-02-14T15:03:32;12.60;99.90
15257;DHT22;7731;50.720;6.912;2024-02-14T15:06:02;12.60;99.90
15257;DHT22;7731;50.720;6.912;2024-02-14T15:08:33;12.60;99.90
15257;DHT22;7731;50.720;6.912;2024-02-14T15:11:06;12.70;99.90
15257;DHT22;7731;50.720;6.912;2024-02-14T15:13:39;12.70;99.90
15257;DHT22;7731;50.720;6.912;2024-02-14T15:16:13;12.70;99.90
15257;DHT22;7731;50.720;6.912;2024-02-14T15:18:50;12.60;99.90
15257;DHT22;7731;50.720;6.912;2024-02-14T15:21:21;12.50;99.90
15257;DHT22;7731;50.720;6.912;2024-02-14T15:23:51;12.50;99.90
15257;DHT22;7731;50.720;6.912;2024-02-14T15:26:22;12.50;99.90
15257;DHT22;7731;50.720;6.912;2024-02-14T15:28:55;12.50;99.90
15257;DHT22;7731;50.720;6.912;2024-02-14T15:31:45;12.40;99.90
15257;DHT22;7731;50.720;6.912;2024-02-14T15:34:28;12.50;99.90
15257;DHT22;7731;50.720;6.912;2024-02-14T15:36:58;12.50;99.90
15257;DHT22;7731;50.720;6.912;2024-02-14T15:39:29;12.50;99.90
15257;DHT22;7731;50.720;6.912;2024-02-14T15:42:02;12.50;99.90
15257;DHT22;7731;50.720;6.912;2024-02-14T15:44:40;12.50;99.90
15257;DHT22;7731;50.720;6.912;2024-02-14T15:47:13;12.60;99.90
15257;DHT22;7731;50.720;6.912;2024-02-14T15:49:46;12.60;99.90
15257;DHT22;7731;50.720;6.912;2024-02-14T15:52:17;12.60;99.90
15257;DHT22;7731;50.720;6.912;2024-02-14T15:54:48;12.60;99.90
15257;DHT22;7731;50.720;6.912;2024-02-14T15:57:21;12.60;99.90
15257;DHT22;7731;50.720;6.912;2024-02-14T15:59:58;12.60;99.90
15257;DHT22;7731;50.720;6.912;2024-02-14T16:02:32;12.70;99.90
15257;DHT22;7731;50.720;6.912;2024-02-14T16:05:04;12.70;99.90
15257;DHT22;7731;50.720;6.912;2024-02-14T16:07:36;12.70;99.90
15257;DHT22;7731;50.720;6.912;2024-02-14T16:10:12;12.70;99.90
15257;DHT22;7731;50.720;6.912;2024-02-14T16:12:43;12.70;99.90
15257;DHT22;7731;50.720;6.912;2024-02-14T16:15:18;12.60;99.90
15257;DHT22;7731;50.720;6.912;2024-02-14T16:17:51;12.60;99.90
15257;DHT22;7731;50.720;6.912;2024-02-14T16:20:28;12.50;99.90
15257;DHT22;7731;50.720;6.912;2024-02-14T16:23:01;12.50;99.90
15257;DHT22;7731;50.720;6.912;2024-02-14T16:25:33;12.60;99.90
15257;DHT22;7731;50.720;6.912;2024-02-14T16:28:05;12.50;99.90
15257;DHT22;7731;50.720;6.912;2024-02-14T16:30:38;12.50;99.90
15257;DHT22;7731;50.720;6.912;2024-02-14T16:33:08;12.40;99.90
15257;DHT22;7731;50.720;6.912;2024-02-14T16:35:39;12.40;99.90
15257;DHT22;7731;50.720;6.912;2024-02-14T16:38:10;12.40;99.90